createdAt,value
2023-05-05T00:02:01.730Z,10.55
2023-05-05T00:04:28.636Z,10.58
2023-05-05T00:06:54.928Z,10.51
2023-05-05T00:09:21.480Z,10.49
2023-05-05T00:11:47.839Z,10.45
2023-05-05T00:14:14.183Z,10.46
2023-05-05T00:16:40.552Z,10.49
2023-05-05T00:19:07.068Z,10.43
2023-05-05T00:21:33.353Z,10.40
2023-05-05T00:23:59.625Z,10.27
2023-05-05T00:26:25.919Z,10.22
2023-05-05T00:28:52.239Z,10.28
2023-05-05T00:31:18.547Z,10.33
2023-05-05T00:33:44.911Z,10.36
2023-05-05T00:36:11.313Z,10.37
2023-05-05T00:38:37.997Z,10.45
2023-05-05T00:41:04.408Z,10.43
2023-05-05T00:43:30.711Z,10.45
2023-05-05T00:46:02.310Z,10.49
2023-05-05T00:48:31.851Z,10.52
2023-05-05T00:50:58.718Z,10.50
2023-05-05T00:53:26.452Z,10.52
2023-05-05T00:55:53.227Z,10.59
2023-05-05T00:58:19.545Z,10.57
2023-05-05T01:00:45.892Z,10.49
2023-05-05T01:03:15.209Z,10.51
2023-05-05T01:06:00.180Z,10.46
2023-05-05T01:08:49.513Z,10.45
2023-05-05T01:11:48.048Z,10.50
2023-05-05T01:14:16.615Z,10.53
2023-05-05T01:16:55.997Z,10.54
2023-05-05T01:19:40.791Z,10.49
2023-05-05T01:22:08.820Z,10.44
2023-05-05T01:25:04.246Z,10.30
2023-05-05T01:27:39.405Z,10.40
2023-05-05T01:30:24.543Z,10.34
2023-05-05T01:32:52.218Z,10.34
2023-05-05T01:35:20.572Z,10.39
2023-05-05T01:38:02.917Z,10.37
2023-05-05T01:40:31.824Z,10.27
2023-05-05T01:43:00.543Z,10.32
2023-05-05T01:45:29.303Z,10.32
2023-05-05T01:47:56.238Z,10.24
2023-05-05T01:50:23.032Z,10.06
2023-05-05T01:52:50.332Z,10.22
2023-05-05T01:55:18.315Z,10.19
2023-05-05T01:57:45.366Z,10.28
2023-05-05T02:00:12.228Z,10.10
2023-05-05T02:02:39.185Z,10.07
2023-05-05T02:05:06.504Z,10.14
2023-05-05T02:07:33.571Z,10.19
2023-05-05T02:10:01.327Z,10.04
2023-05-05T02:12:29.763Z,10.05
2023-05-05T02:14:57.924Z,10.01
2023-05-05T02:17:25.329Z,10.01
2023-05-05T02:19:52.410Z,10.07
2023-05-05T02:22:18.950Z,10.02
2023-05-05T02:24:45.323Z,10.03
2023-05-05T02:27:11.972Z,9.97
2023-05-05T02:29:44.701Z,9.96
2023-05-05T02:32:14.283Z,10.01
2023-05-05T02:34:42.028Z,9.96
2023-05-05T02:37:11.085Z,9.96
2023-05-05T02:39:43.430Z,9.82
2023-05-05T02:42:13.023Z,9.92
2023-05-05T02:44:42.160Z,9.83
2023-05-05T02:47:08.725Z,9.83
2023-05-05T02:49:35.195Z,9.80
2023-05-05T02:52:01.566Z,9.77
2023-05-05T02:54:28.253Z,9.80
2023-05-05T02:56:57.194Z,9.84
2023-05-05T02:59:33.438Z,9.85
2023-05-05T03:02:21.783Z,9.85
2023-05-05T03:04:54.065Z,9.84
2023-05-05T03:07:46.776Z,9.90
2023-05-05T03:10:15.034Z,9.93
2023-05-05T03:13:00.816Z,9.87
2023-05-05T03:15:37.658Z,9.95
2023-05-05T03:18:04.295Z,9.92
2023-05-05T03:20:31.091Z,10.01
2023-05-05T03:22:57.564Z,10.02
2023-05-05T03:25:41.057Z,9.94
2023-05-05T03:28:07.353Z,9.85
2023-05-05T03:30:33.694Z,9.81
2023-05-05T03:33:00.064Z,9.90
2023-05-05T03:35:26.386Z,9.86
2023-05-05T03:37:52.733Z,9.82
2023-05-05T03:40:19.055Z,9.75
2023-05-05T03:42:45.480Z,9.88
2023-05-05T03:45:12.232Z,9.78
2023-05-05T03:47:38.556Z,9.76
2023-05-05T03:50:05.214Z,9.79
2023-05-05T03:52:31.799Z,9.75
2023-05-05T03:54:59.936Z,9.67
2023-05-05T03:57:26.810Z,9.69
2023-05-05T03:59:54.000Z,9.68
2023-05-05T04:02:20.407Z,9.67
2023-05-05T04:04:46.789Z,9.70
2023-05-05T04:07:13.101Z,9.66
2023-05-05T04:09:44.317Z,9.69
2023-05-05T04:12:11.108Z,9.70
2023-05-05T04:14:37.449Z,9.55
2023-05-05T04:17:03.931Z,9.65
2023-05-05T04:19:33.163Z,9.65
2023-05-05T04:22:00.006Z,9.74
2023-05-05T04:24:26.959Z,9.77
2023-05-05T04:26:53.391Z,9.79
2023-05-05T04:29:19.779Z,9.87
2023-05-05T04:31:46.266Z,9.87
2023-05-05T04:34:12.683Z,9.75
2023-05-05T04:36:38.994Z,9.75
2023-05-05T04:39:06.885Z,9.88
2023-05-05T04:41:33.384Z,9.98
2023-05-05T04:44:00.487Z,9.86
2023-05-05T04:46:26.829Z,9.89
2023-05-05T04:48:53.213Z,10.03
2023-05-05T04:51:19.669Z,9.81
2023-05-05T04:53:46.422Z,9.95
2023-05-05T04:56:12.714Z,10.07
2023-05-05T04:58:38.975Z,10.21
2023-05-05T05:01:05.288Z,10.21
2023-05-05T05:03:31.986Z,10.29
2023-05-05T05:05:58.475Z,10.38
2023-05-05T05:08:24.815Z,10.48
2023-05-05T05:10:51.300Z,10.45
2023-05-05T05:13:17.742Z,10.60
2023-05-05T05:15:45.063Z,10.63
2023-05-05T05:18:11.485Z,10.69
2023-05-05T05:20:37.791Z,10.82
2023-05-05T05:23:04.470Z,10.97
2023-05-05T05:25:30.848Z,11.09
2023-05-05T05:28:08.783Z,11.24
2023-05-05T05:30:36.631Z,11.30
2023-05-05T05:33:02.987Z,11.32
2023-05-05T05:35:29.273Z,11.36
2023-05-05T05:37:55.761Z,11.46
2023-05-05T05:40:22.056Z,11.56
2023-05-05T05:42:48.354Z,11.40
2023-05-05T05:45:14.704Z,11.56
2023-05-05T05:47:41.049Z,11.15
2023-05-05T05:50:07.841Z,11.43
2023-05-05T05:52:36.080Z,11.26
2023-05-05T05:55:02.573Z,11.45
2023-05-05T05:57:28.993Z,11.39
2023-05-05T05:59:55.387Z,11.44
2023-05-05T06:02:21.837Z,11.64
2023-05-05T06:04:48.160Z,11.62
2023-05-05T06:07:14.555Z,11.67
2023-05-05T06:09:41.380Z,11.51
2023-05-05T06:12:07.663Z,11.63
2023-05-05T06:14:33.976Z,11.61
2023-05-05T06:17:00.266Z,11.74
2023-05-05T06:19:26.559Z,11.83
2023-05-05T06:21:52.977Z,11.64
2023-05-05T06:24:19.258Z,11.89
2023-05-05T06:26:45.745Z,11.95
2023-05-05T06:29:12.504Z,11.89
2023-05-05T06:31:38.909Z,11.56
2023-05-05T06:34:05.241Z,11.77
2023-05-05T06:36:32.290Z,11.62
2023-05-05T06:38:58.716Z,11.81
2023-05-05T06:41:25.072Z,12.00
2023-05-05T06:43:51.472Z,12.10
2023-05-05T06:46:17.817Z,12.33
2023-05-05T06:48:44.147Z,12.24
2023-05-05T06:51:10.474Z,12.57
2023-05-05T06:53:36.745Z,12.49
2023-05-05T06:56:03.101Z,12.61
2023-05-05T06:58:29.435Z,12.68
2023-05-05T07:00:55.925Z,12.53
2023-05-05T07:03:22.308Z,12.74
2023-05-05T07:05:48.709Z,12.50
2023-05-05T07:08:15.245Z,12.48
2023-05-05T07:10:41.815Z,13.01
2023-05-05T07:13:08.353Z,12.89
2023-05-05T07:15:34.832Z,13.09
2023-05-05T07:18:01.259Z,13.32
2023-05-05T07:20:27.699Z,13.32
2023-05-05T07:22:54.081Z,13.16
2023-05-05T07:25:20.848Z,13.35
2023-05-05T07:27:47.206Z,13.50
2023-05-05T07:30:16.530Z,13.85
2023-05-05T07:32:44.694Z,13.96
2023-05-05T07:35:11.300Z,14.23
2023-05-05T07:37:37.634Z,14.60
2023-05-05T07:40:04.149Z,14.82
2023-05-05T07:42:30.620Z,15.08
2023-05-05T07:44:56.964Z,15.07
2023-05-05T07:47:23.366Z,15.32
2023-05-05T07:49:49.779Z,15.48
2023-05-05T07:52:16.107Z,15.75
2023-05-05T07:54:42.536Z,15.76
2023-05-05T07:57:08.881Z,15.81
2023-05-05T07:59:35.276Z,15.87
2023-05-05T08:02:01.593Z,15.98
2023-05-05T08:04:28.008Z,15.87
2023-05-05T08:06:54.378Z,15.82
2023-05-05T08:09:20.714Z,15.64
2023-05-05T08:11:47.052Z,15.65
2023-05-05T08:14:13.480Z,15.63
2023-05-05T08:16:39.784Z,15.92
2023-05-05T08:19:14.582Z,15.90
2023-05-05T08:21:47.788Z,15.12
2023-05-05T08:24:14.167Z,15.70
2023-05-05T08:26:40.708Z,15.37
2023-05-05T08:29:07.157Z,15.89
2023-05-05T08:31:34.446Z,15.86
2023-05-05T08:34:00.850Z,15.87
2023-05-05T08:36:27.256Z,15.65
2023-05-05T08:38:53.588Z,15.98
2023-05-05T08:41:19.960Z,15.66
2023-05-05T08:43:47.189Z,15.71
2023-05-05T08:46:13.660Z,15.70
2023-05-05T08:48:43.227Z,15.79
2023-05-05T08:51:10.987Z,15.85
2023-05-05T08:53:56.172Z,15.80
2023-05-05T08:56:25.748Z,15.73
2023-05-05T08:58:52.321Z,15.91
2023-05-05T09:01:18.666Z,16.01
2023-05-05T09:03:46.198Z,15.78
2023-05-05T09:06:12.745Z,15.52
2023-05-05T09:08:39.157Z,15.65
2023-05-05T09:11:05.983Z,15.71
2023-05-05T09:13:32.627Z,15.70
2023-05-05T09:15:59.417Z,15.85
2023-05-05T09:18:26.048Z,15.88
2023-05-05T09:20:52.427Z,15.84
2023-05-05T09:23:19.751Z,15.72
2023-05-05T09:25:47.079Z,15.70
2023-05-05T09:28:14.323Z,15.37
2023-05-05T09:30:42.353Z,15.58
2023-05-05T09:33:09.135Z,16.23
2023-05-05T09:36:08.120Z,16.57
2023-05-05T09:38:34.977Z,16.84
2023-05-05T09:41:01.509Z,16.94
2023-05-05T09:43:27.924Z,17.22
2023-05-05T09:46:05.516Z,17.31
2023-05-05T09:48:32.297Z,17.46
2023-05-05T09:50:59.318Z,17.48
2023-05-05T09:53:26.521Z,17.86
2023-05-05T09:55:54.165Z,17.92
2023-05-05T09:58:21.270Z,17.99
2023-05-05T10:00:47.972Z,18.17
2023-05-05T10:03:14.513Z,18.05
2023-05-05T10:05:48.476Z,18.20
2023-05-05T10:08:14.823Z,18.28
2023-05-05T10:10:46.403Z,18.15
2023-05-05T10:13:12.880Z,18.25
2023-05-05T10:15:41.781Z,17.97
2023-05-05T10:18:08.686Z,18.17
2023-05-05T10:20:36.347Z,17.83
2023-05-05T10:23:05.481Z,18.04
2023-05-05T10:25:35.163Z,17.92
2023-05-05T10:28:04.776Z,16.88
2023-05-05T10:30:32.019Z,17.44
2023-05-05T10:33:30.397Z,17.29
2023-05-05T10:36:00.880Z,17.35
2023-05-05T10:38:28.894Z,17.03
2023-05-05T10:40:56.365Z,17.44
2023-05-05T10:43:23.326Z,17.23
2023-05-05T10:45:49.908Z,17.15
2023-05-05T10:48:21.054Z,17.38
2023-05-05T10:50:54.782Z,17.33
2023-05-05T10:53:26.044Z,17.11
2023-05-05T10:56:01.605Z,17.41
2023-05-05T10:58:35.054Z,17.45
2023-05-05T11:01:08.048Z,17.29
2023-05-05T11:03:34.546Z,17.49
2023-05-05T11:06:03.882Z,17.08
2023-05-05T11:08:36.734Z,17.10
2023-05-05T11:11:03.307Z,17.19
2023-05-05T11:13:29.734Z,16.79
2023-05-05T11:15:57.390Z,16.56
2023-05-05T11:18:36.105Z,16.77
2023-05-05T11:21:03.904Z,16.78
2023-05-05T11:23:30.535Z,16.68
2023-05-05T11:25:57.673Z,16.69
2023-05-05T11:28:25.519Z,16.72
2023-05-05T11:30:54.926Z,16.79
2023-05-05T11:33:25.674Z,16.75
2023-05-05T11:36:03.422Z,17.20
2023-05-05T11:38:37.799Z,17.38
2023-05-05T11:41:17.209Z,17.53
2023-05-05T11:43:43.563Z,17.70
2023-05-05T11:46:19.425Z,17.97
2023-05-05T11:48:49.566Z,18.05
2023-05-05T11:51:16.980Z,18.24
2023-05-05T11:53:44.273Z,18.38
2023-05-05T11:56:11.312Z,18.32
2023-05-05T11:58:37.885Z,18.42
2023-05-05T12:01:05.719Z,18.50
2023-05-05T12:03:38.953Z,18.46
2023-05-05T12:06:06.327Z,18.56
2023-05-05T12:08:36.476Z,18.28
2023-05-05T12:11:09.953Z,18.13
2023-05-05T12:13:36.401Z,18.15
2023-05-05T12:16:09.678Z,18.29
2023-05-05T12:18:36.180Z,17.90
2023-05-05T12:21:12.416Z,17.84
2023-05-05T12:23:39.130Z,17.67
2023-05-05T12:26:05.458Z,17.59
2023-05-05T12:28:46.316Z,17.42
2023-05-05T12:31:12.779Z,17.36
2023-05-05T12:33:39.737Z,17.28
2023-05-05T12:36:07.186Z,17.22
2023-05-05T12:38:33.504Z,17.54
2023-05-05T12:40:59.804Z,17.32
2023-05-05T12:43:28.333Z,17.41
2023-05-05T12:46:00.547Z,17.55
2023-05-05T12:48:26.988Z,16.98
2023-05-05T12:50:53.303Z,16.99
2023-05-05T12:53:23.953Z,17.26
2023-05-05T12:55:51.147Z,17.12
2023-05-05T12:58:17.592Z,16.86
2023-05-05T13:00:44.015Z,16.74
2023-05-05T13:03:19.843Z,16.58
2023-05-05T13:05:46.383Z,16.33
2023-05-05T13:08:12.689Z,16.64
2023-05-05T13:10:41.423Z,16.92
2023-05-05T13:13:08.717Z,16.97
2023-05-05T13:15:35.237Z,17.16
2023-05-05T13:18:02.512Z,16.97
2023-05-05T13:20:28.987Z,16.92
2023-05-05T13:22:55.415Z,16.92
2023-05-05T13:25:21.721Z,16.84
2023-05-05T13:27:48.039Z,16.78
2023-05-05T13:30:14.535Z,16.79
2023-05-05T13:32:41.278Z,16.55
2023-05-05T13:35:08.214Z,16.79
2023-05-05T13:37:34.745Z,17.07
2023-05-05T13:40:01.292Z,17.44
2023-05-05T13:42:27.661Z,17.59
2023-05-05T13:44:53.991Z,17.53
2023-05-05T13:47:20.730Z,17.80
2023-05-05T13:49:47.221Z,17.93
2023-05-05T13:52:13.617Z,17.90
2023-05-05T13:54:40.186Z,18.01
2023-05-05T13:57:07.907Z,18.11
2023-05-05T13:59:34.248Z,18.32
2023-05-05T14:02:01.172Z,18.35
2023-05-05T14:04:27.592Z,18.43
2023-05-05T14:06:54.524Z,18.42
2023-05-05T14:09:21.056Z,18.39
2023-05-05T14:11:47.363Z,18.52
2023-05-05T14:14:13.722Z,18.09
2023-05-05T14:16:40.212Z,18.27
2023-05-05T14:19:06.528Z,18.35
2023-05-05T14:21:33.029Z,18.47
2023-05-05T14:23:59.523Z,18.20
2023-05-05T14:26:25.913Z,18.06
2023-05-05T14:28:52.262Z,17.79
2023-05-05T14:31:18.640Z,18.02
2023-05-05T14:33:44.942Z,18.28
2023-05-05T14:36:11.344Z,17.95
2023-05-05T14:38:37.714Z,17.57
2023-05-05T14:41:04.197Z,17.88
2023-05-05T14:43:30.525Z,17.57
2023-05-05T14:45:58.973Z,17.56
2023-05-05T14:48:25.397Z,17.65
2023-05-05T14:50:51.720Z,17.44
2023-05-05T14:53:18.957Z,17.55
2023-05-05T14:55:45.371Z,17.80
2023-05-05T14:58:11.658Z,17.81
2023-05-05T15:00:38.026Z,17.77
2023-05-05T15:03:04.438Z,17.73
2023-05-05T15:05:30.848Z,17.61
2023-05-05T15:07:57.250Z,17.15
2023-05-05T15:10:23.645Z,17.30
2023-05-05T15:12:50.970Z,17.35
2023-05-05T15:15:17.795Z,17.52
2023-05-05T15:17:44.139Z,17.42
2023-05-05T15:20:10.774Z,17.12
2023-05-05T15:22:37.129Z,17.37
2023-05-05T15:25:03.571Z,17.16
2023-05-05T15:27:31.565Z,17.09
2023-05-05T15:29:57.900Z,17.05
2023-05-05T15:32:24.238Z,17.31
2023-05-05T15:34:50.729Z,17.19
2023-05-05T15:37:17.161Z,17.25
2023-05-05T15:39:43.600Z,17.60
2023-05-05T15:42:10.213Z,17.77
2023-05-05T15:44:36.581Z,17.90
2023-05-05T15:47:03.011Z,18.16
2023-05-05T15:49:29.339Z,18.16
2023-05-05T15:51:55.845Z,18.18
2023-05-05T15:54:22.256Z,18.29
2023-05-05T15:56:48.651Z,18.36
2023-05-05T15:59:14.985Z,18.46
2023-05-05T16:01:41.390Z,18.30
2023-05-05T16:04:07.802Z,18.37
2023-05-05T16:06:34.216Z,18.49
2023-05-05T16:09:00.637Z,18.53
2023-05-05T16:11:27.194Z,18.59
2023-05-05T16:13:53.651Z,18.49
2023-05-05T16:16:20.030Z,18.15
2023-05-05T16:18:46.398Z,18.23
2023-05-05T16:21:12.875Z,18.18
2023-05-05T16:23:39.297Z,18.20
2023-05-05T16:26:05.650Z,18.12
2023-05-05T16:28:34.185Z,17.83
2023-05-05T16:31:00.983Z,17.78
2023-05-05T16:33:27.788Z,17.59
2023-05-05T16:35:54.138Z,17.89
2023-05-05T16:38:20.681Z,16.97
2023-05-05T16:40:47.004Z,17.48
2023-05-05T16:43:13.352Z,17.54
2023-05-05T16:45:39.678Z,17.28
2023-05-05T16:48:08.904Z,17.04
2023-05-05T16:50:35.863Z,16.94
2023-05-05T16:53:02.204Z,17.43
2023-05-05T16:55:28.594Z,17.26
2023-05-05T16:57:54.979Z,17.48
2023-05-05T17:00:21.386Z,17.27
2023-05-05T17:02:47.747Z,17.31
2023-05-05T17:05:14.151Z,16.49
2023-05-05T17:07:40.610Z,16.94
2023-05-05T17:10:07.361Z,16.75
2023-05-05T17:12:33.683Z,16.15
2023-05-05T17:15:00.133Z,16.63
2023-05-05T17:17:26.710Z,16.31
2023-05-05T17:19:53.106Z,16.89
2023-05-05T17:22:19.471Z,16.18
2023-05-05T17:24:45.763Z,16.52
2023-05-05T17:27:12.731Z,16.44
2023-05-05T17:29:41.059Z,16.52
2023-05-05T17:32:07.873Z,16.54
2023-05-05T17:34:34.251Z,16.53
2023-05-05T17:37:00.745Z,16.53
2023-05-05T17:39:27.130Z,16.70
2023-05-05T17:41:53.472Z,16.68
2023-05-05T17:44:19.844Z,16.57
2023-05-05T17:46:46.201Z,16.84
2023-05-05T17:49:12.531Z,16.99
2023-05-05T17:51:38.843Z,16.97
2023-05-05T17:54:05.334Z,17.05
2023-05-05T17:56:31.716Z,17.11
2023-05-05T17:58:58.107Z,17.03
2023-05-05T18:01:25.109Z,17.08
2023-05-05T18:03:51.581Z,17.07
2023-05-05T18:06:18.218Z,17.06
2023-05-05T18:08:44.789Z,17.12
2023-05-05T18:11:11.218Z,17.21
2023-05-05T18:13:38.719Z,17.19
2023-05-05T18:16:05.220Z,17.06
2023-05-05T18:18:31.619Z,17.21
2023-05-05T18:20:58.007Z,17.03
2023-05-05T18:23:24.324Z,17.06
2023-05-05T18:25:51.087Z,17.00
2023-05-05T18:28:17.452Z,16.93
2023-05-05T18:30:43.810Z,16.77
2023-05-05T18:33:10.534Z,16.68
2023-05-05T18:35:37.119Z,16.49
2023-05-05T18:38:03.672Z,16.61
2023-05-05T18:40:30.019Z,16.25
2023-05-05T18:42:56.875Z,16.47
2023-05-05T18:45:23.240Z,16.56
2023-05-05T18:47:49.990Z,16.35
2023-05-05T18:50:16.758Z,16.33
2023-05-05T18:52:43.094Z,16.08
2023-05-05T18:55:09.786Z,15.79
2023-05-05T18:57:36.388Z,15.48
2023-05-05T19:00:02.822Z,16.01
2023-05-05T19:02:29.258Z,16.00
2023-05-05T19:04:56.011Z,16.13
2023-05-05T19:07:34.333Z,15.93
2023-05-05T19:10:03.477Z,15.76
2023-05-05T19:12:29.822Z,16.10
2023-05-05T19:14:56.177Z,15.89
2023-05-05T19:17:22.703Z,15.71
2023-05-05T19:19:49.079Z,15.57
2023-05-05T19:22:17.375Z,15.43
2023-05-05T19:24:43.796Z,15.37
2023-05-05T19:27:15.502Z,15.57
2023-05-05T19:29:42.941Z,15.54
2023-05-05T19:32:09.514Z,15.67
2023-05-05T19:34:35.907Z,15.61
2023-05-05T19:37:02.290Z,15.37
2023-05-05T19:39:28.658Z,15.30
2023-05-05T19:41:55.079Z,15.44
2023-05-05T19:44:22.736Z,14.91
2023-05-05T19:46:49.136Z,15.12
2023-05-05T19:49:15.560Z,15.04
2023-05-05T19:51:42.680Z,14.48
2023-05-05T19:54:09.094Z,15.24
2023-05-05T19:56:35.458Z,15.39
2023-05-05T19:59:02.415Z,15.47
2023-05-05T20:01:29.153Z,15.65
2023-05-05T20:03:56.475Z,15.56
2023-05-05T20:06:23.038Z,15.75
2023-05-05T20:08:49.395Z,15.81
2023-05-05T20:11:16.144Z,15.75
2023-05-05T20:13:42.981Z,15.70
2023-05-05T20:16:09.816Z,15.76
2023-05-05T20:18:36.202Z,15.53
2023-05-05T20:21:02.571Z,15.77
2023-05-05T20:23:28.931Z,15.76
2023-05-05T20:25:56.074Z,15.73
2023-05-05T20:28:22.728Z,15.67
2023-05-05T20:30:49.084Z,15.65
2023-05-05T20:33:15.560Z,15.58
2023-05-05T20:35:41.924Z,15.42
2023-05-05T20:38:09.706Z,15.10
2023-05-05T20:40:36.096Z,15.44
2023-05-05T20:43:02.485Z,15.34
2023-05-05T20:45:31.596Z,15.35
2023-05-05T20:47:59.059Z,15.28
2023-05-05T20:50:25.653Z,15.32
2023-05-05T20:52:52.017Z,15.27
2023-05-05T20:55:18.485Z,15.03
2023-05-05T20:57:44.793Z,15.11
2023-05-05T21:00:11.473Z,15.14
2023-05-05T21:02:38.166Z,15.07
2023-05-05T21:05:05.161Z,15.06
2023-05-05T21:07:34.080Z,15.13
2023-05-05T21:10:01.088Z,14.75
2023-05-05T21:12:28.449Z,14.80
2023-05-05T21:14:56.879Z,14.74
2023-05-05T21:17:23.271Z,14.73
2023-05-05T21:19:49.568Z,14.56
2023-05-05T21:22:15.866Z,14.72
2023-05-05T21:24:42.166Z,14.19
2023-05-05T21:27:08.511Z,14.28
2023-05-05T21:29:37.631Z,14.52
2023-05-05T21:32:08.014Z,14.35
2023-05-05T21:34:34.660Z,14.47
2023-05-05T21:37:00.988Z,14.66
2023-05-05T21:39:28.086Z,14.49
2023-05-05T21:41:54.401Z,14.28
2023-05-05T21:44:21.040Z,14.60
2023-05-05T21:46:47.483Z,14.39
2023-05-05T21:49:14.539Z,14.06
2023-05-05T21:51:41.187Z,13.98
2023-05-05T21:54:07.476Z,14.22
2023-05-05T21:56:34.314Z,14.29
2023-05-05T21:59:01.032Z,14.13
2023-05-05T22:01:27.440Z,14.28
2023-05-05T22:03:54.248Z,14.02
2023-05-05T22:06:21.123Z,14.05
2023-05-05T22:08:47.851Z,13.99
2023-05-05T22:11:14.181Z,13.97
2023-05-05T22:13:40.878Z,13.94
2023-05-05T22:16:08.066Z,14.00
2023-05-05T22:18:34.757Z,13.97
2023-05-05T22:21:01.698Z,13.95
2023-05-05T22:23:28.587Z,13.71
2023-05-05T22:25:55.462Z,13.77
2023-05-05T22:28:21.879Z,13.64
2023-05-05T22:30:48.386Z,13.66
2023-05-05T22:33:14.996Z,13.55
2023-05-05T22:35:41.336Z,13.45
2023-05-05T22:38:07.763Z,13.38
2023-05-05T22:40:34.299Z,13.27
2023-05-05T22:43:00.647Z,13.17
2023-05-05T22:45:27.163Z,13.10
2023-05-05T22:47:53.823Z,13.04
2023-05-05T22:50:20.362Z,12.79
2023-05-05T22:52:46.901Z,12.73
2023-05-05T22:55:14.573Z,12.76
2023-05-05T22:57:41.307Z,12.52
2023-05-05T23:00:10.711Z,12.55
2023-05-05T23:02:37.660Z,12.61
2023-05-05T23:05:04.209Z,12.57
2023-05-05T23:07:30.648Z,12.31
2023-05-05T23:09:56.921Z,12.27
2023-05-05T23:12:23.253Z,12.39
2023-05-05T23:14:49.924Z,12.42
2023-05-05T23:17:16.355Z,12.37
2023-05-05T23:19:42.694Z,12.28
2023-05-05T23:22:09.003Z,12.29
2023-05-05T23:24:35.321Z,12.20
2023-05-05T23:27:04.533Z,12.21
2023-05-05T23:29:30.955Z,12.13
2023-05-05T23:31:57.440Z,12.09
2023-05-05T23:34:23.999Z,11.92
2023-05-05T23:36:50.443Z,12.06
2023-05-05T23:39:16.758Z,12.05
2023-05-05T23:41:43.111Z,12.03
2023-05-05T23:44:09.394Z,12.00
2023-05-05T23:46:35.720Z,11.83
2023-05-05T23:49:02.130Z,11.85
2023-05-05T23:51:28.442Z,11.84
2023-05-05T23:53:56.223Z,11.82
2023-05-05T23:56:23.023Z,11.84
2023-05-05T23:58:49.366Z,11.82
